Hodgeville, Canada
Current Conditions -  °F | °C
As of 2:00 AM on Wednesday 26 Nov 2014 (Local Time) from CYYN Reporting Station
Light Snow Light Snow  
Wind Chill:   Ceiling: 800
Heat Index: 12°   Visibility: 9mi
Dew Point:   Wind: 6mph
Humidity: 85%   Direction: 100°E
Pressure: 30.18"   Gusts: NA
Location:  50.12°N, 106.98°W
Report Text: CYYN 260800Z AUTO 10005KT 9SM -SN BKN008 OVC039 M11/M13 A3018 RMK PRESRR SLP273
Loading
Personal Weather Stations






























Interactive Weather Map New forecast layout! Learn more

10-Day Weather Forecast

Advertisements
Track Severe Weather on mobile